createdAt,value
2017-04-29T00:00:50.034Z,97.50
2017-04-29T00:03:18.370Z,97.50
2017-04-29T00:05:46.704Z,97.50
2017-04-29T00:08:15.765Z,97.30
2017-04-29T00:16:40.764Z,96.70
2017-04-29T00:19:09.832Z,96.90
2017-04-29T00:21:38.151Z,97.00
2017-04-29T00:24:06.586Z,97.20
2017-04-29T00:26:34.920Z,97.20
2017-04-29T00:29:03.380Z,97.20
2017-04-29T00:31:32.431Z,97.10
2017-04-29T00:34:00.752Z,97.00
2017-04-29T00:36:29.819Z,97.10
2017-04-29T00:38:58.131Z,97.10
2017-04-29T00:41:26.468Z,97.30
2017-04-29T00:43:54.779Z,97.10
2017-04-29T00:46:23.853Z,97.00
2017-04-29T00:48:52.921Z,97.70
2017-04-29T00:51:21.268Z,97.50
2017-04-29T00:53:49.579Z,97.50
2017-04-29T00:56:17.919Z,97.60
2017-04-29T00:58:46.228Z,97.70
2017-04-29T01:01:14.564Z,97.70
2017-04-29T01:03:42.871Z,97.70
2017-04-29T01:06:11.213Z,97.60
2017-04-29T01:08:39.528Z,97.60
2017-04-29T01:11:07.880Z,97.50
2017-04-29T01:13:36.204Z,97.50
2017-04-29T01:16:04.540Z,97.40
2017-04-29T01:18:32.856Z,97.10
2017-04-29T01:21:01.196Z,96.90
2017-04-29T01:23:29.543Z,96.80
2017-04-29T01:25:58.641Z,96.50
2017-04-29T01:28:27.692Z,96.60
2017-04-29T01:30:56.010Z,96.80
2017-04-29T01:33:25.082Z,96.10
2017-04-29T01:35:53.457Z,96.00
2017-04-29T01:38:21.785Z,95.90
2017-04-29T01:40:50.092Z,95.80
2017-04-29T01:43:18.428Z,95.80
2017-04-29T01:45:46.740Z,95.80
2017-04-29T01:48:15.075Z,95.90
2017-04-29T01:50:43.391Z,95.90
2017-04-29T01:53:11.732Z,95.90
2017-04-29T01:55:40.054Z,95.90
2017-04-29T01:58:08.400Z,96.10
2017-04-29T02:00:36.713Z,96.10
2017-04-29T02:03:05.075Z,96.30
2017-04-29T02:05:33.383Z,96.50
2017-04-29T02:08:01.703Z,96.50
2017-04-29T02:10:30.036Z,96.50
2017-04-29T02:12:58.493Z,96.40
2017-04-29T02:15:26.851Z,96.40
2017-04-29T02:17:55.168Z,96.40
2017-04-29T02:20:23.508Z,96.50
2017-04-29T02:22:51.829Z,96.40
2017-04-29T02:25:20.175Z,96.60
2017-04-29T02:27:48.492Z,96.50
2017-04-29T02:30:17.589Z,96.70
2017-04-29T02:32:46.648Z,97.00
2017-04-29T02:35:15.163Z,96.90
2017-04-29T02:37:44.232Z,96.90
2017-04-29T02:40:12.548Z,96.60
2017-04-29T02:42:41.641Z,96.80
2017-04-29T02:45:10.696Z,97.00
2017-04-29T02:47:39.041Z,97.10
2017-04-29T02:50:07.375Z,97.10
2017-04-29T02:52:35.714Z,97.20
2017-04-29T02:55:04.036Z,97.10
2017-04-29T02:57:33.104Z,96.90
2017-04-29T03:00:01.416Z,96.80
2017-04-29T03:02:30.492Z,95.40
2017-04-29T03:04:58.808Z,95.40
2017-04-29T03:07:27.148Z,96.10
2017-04-29T03:09:55.469Z,96.00
2017-04-29T03:12:23.836Z,95.90
2017-04-29T03:14:52.544Z,95.70
2017-04-29T03:17:20.856Z,94.70
2017-04-29T03:19:49.199Z,95.00
2017-04-29T03:22:17.512Z,95.50
2017-04-29T03:24:45.852Z,96.10
2017-04-29T03:27:14.167Z,96.20
2017-04-29T03:29:42.516Z,96.20
2017-04-29T03:32:10.841Z,96.20
2017-04-29T03:34:39.915Z,96.30
2017-04-29T03:37:08.225Z,96.30
2017-04-29T03:39:36.560Z,96.30
2017-04-29T03:42:04.871Z,96.10
2017-04-29T03:44:33.212Z,96.00
2017-04-29T03:47:01.524Z,96.00
2017-04-29T03:49:31.013Z,96.10
2017-04-29T03:52:00.073Z,96.30
2017-04-29T03:54:28.387Z,96.60
2017-04-29T03:56:57.458Z,96.70
2017-04-29T03:59:25.776Z,96.90
2017-04-29T04:01:54.116Z,96.80
2017-04-29T04:04:22.427Z,96.40
2017-04-29T04:06:50.759Z,96.30
2017-04-29T04:09:19.082Z,95.90
2017-04-29T04:11:47.456Z,96.00
2017-04-29T04:14:16.515Z,96.50
2017-04-29T04:16:44.847Z,96.90
2017-04-29T04:19:13.168Z,97.40
2017-04-29T04:21:41.507Z,97.40
2017-04-29T04:24:09.829Z,97.80
2017-04-29T04:26:38.159Z,97.70
2017-04-29T04:29:06.476Z,97.60
2017-04-29T04:31:34.818Z,97.20
2017-04-29T04:34:03.237Z,97.10
2017-04-29T04:36:31.568Z,97.00
2017-04-29T04:38:59.885Z,96.50
2017-04-29T04:41:28.333Z,96.80
2017-04-29T04:43:56.655Z,97.00
2017-04-29T04:46:24.975Z,97.00
2017-04-29T04:48:53.316Z,97.10
2017-04-29T04:51:21.628Z,97.10
2017-04-29T04:53:49.956Z,96.80
2017-04-29T04:56:18.272Z,97.10
2017-04-29T04:58:46.612Z,97.40
2017-04-29T05:01:14.924Z,97.90
2017-04-29T05:03:43.260Z,98.10
2017-04-29T05:06:11.571Z,98.20
2017-04-29T05:08:40.641Z,98.40
2017-04-29T05:11:08.960Z,98.20
2017-04-29T05:13:37.312Z,98.50
2017-04-29T05:16:06.364Z,98.00
2017-04-29T05:18:34.693Z,98.20
2017-04-29T05:21:03.759Z,98.40
2017-04-29T05:23:32.093Z,97.40
2017-04-29T05:26:00.408Z,97.00
2017-04-29T05:28:28.946Z,97.20
2017-04-29T05:30:57.283Z,96.30
2017-04-29T05:33:26.336Z,96.40
2017-04-29T05:35:54.679Z,95.80
2017-04-29T05:38:22.999Z,96.50
2017-04-29T05:40:51.331Z,96.00
2017-04-29T05:43:19.648Z,95.70
2017-04-29T05:45:48.180Z,95.80
2017-04-29T05:48:17.227Z,96.30
2017-04-29T05:50:45.551Z,96.60
2017-04-29T05:53:14.842Z,96.80
2017-04-29T05:55:43.901Z,96.60
2017-04-29T05:58:12.212Z,96.30
2017-04-29T06:00:41.621Z,96.30
2017-04-29T06:03:10.679Z,96.60
2017-04-29T06:05:39.856Z,96.80
2017-04-29T06:08:08.490Z,96.40
2017-04-29T06:10:37.549Z,96.60
2017-04-29T06:13:05.878Z,96.90
2017-04-29T06:15:34.232Z,96.80
2017-04-29T06:18:02.682Z,95.50
2017-04-29T06:20:31.067Z,95.40
2017-04-29T06:22:59.688Z,95.20
2017-04-29T06:25:28.748Z,95.70
2017-04-29T06:27:57.092Z,96.00
2017-04-29T06:30:25.739Z,95.90
2017-04-29T06:32:54.800Z,95.90
2017-04-29T06:35:23.121Z,95.30
2017-04-29T06:37:51.693Z,95.10
2017-04-29T06:40:20.744Z,94.50
2017-04-29T06:42:49.051Z,93.50
2017-04-29T06:45:17.392Z,93.20
2017-04-29T06:47:45.711Z,93.20
2017-04-29T06:50:14.920Z,93.20
2017-04-29T06:52:43.988Z,92.80
2017-04-29T06:55:12.302Z,93.30
2017-04-29T06:57:40.944Z,92.30
2017-04-29T07:00:09.255Z,93.30
2017-04-29T07:02:37.596Z,92.10
2017-04-29T07:05:05.972Z,92.90
2017-04-29T07:07:34.291Z,92.50
2017-04-29T07:10:03.349Z,93.00
2017-04-29T07:12:31.701Z,93.40
2017-04-29T07:15:00.041Z,93.00
2017-04-29T07:17:29.091Z,93.30
2017-04-29T07:19:57.601Z,93.30
2017-04-29T07:22:26.668Z,93.90
2017-04-29T07:24:54.982Z,93.40
2017-04-29T07:27:23.563Z,92.40
2017-04-29T07:29:52.619Z,92.40
2017-04-29T07:32:20.943Z,92.40
2017-04-29T07:34:49.511Z,91.60
2017-04-29T07:37:17.827Z,90.60
2017-04-29T07:39:46.145Z,91.00
2017-04-29T07:42:14.475Z,91.70
2017-04-29T07:44:42.798Z,90.90
2017-04-29T07:47:11.140Z,90.50
2017-04-29T07:49:39.462Z,90.20
2017-04-29T07:52:07.792Z,88.60
2017-04-29T07:54:36.124Z,87.30
2017-04-29T07:57:05.355Z,86.90
2017-04-29T07:59:33.673Z,86.30
2017-04-29T08:02:01.989Z,86.90
2017-04-29T08:04:31.075Z,83.10
2017-04-29T08:07:00.172Z,81.40
2017-04-29T08:09:29.229Z,82.10
2017-04-29T08:11:57.746Z,83.20
2017-04-29T08:14:26.796Z,82.20
2017-04-29T08:16:55.370Z,81.60
2017-04-29T08:19:23.755Z,84.00
2017-04-29T08:21:52.075Z,83.10
2017-04-29T08:24:21.132Z,82.10
2017-04-29T08:26:49.589Z,80.00
2017-04-29T08:29:17.901Z,76.80
2017-04-29T08:31:46.226Z,76.70
2017-04-29T08:34:14.592Z,77.80
2017-04-29T08:36:43.652Z,79.00
2017-04-29T08:39:11.968Z,77.40
2017-04-29T08:41:40.469Z,76.90
2017-04-29T08:44:08.792Z,75.80
2017-04-29T08:46:37.105Z,75.40
2017-04-29T08:49:05.668Z,76.80
2017-04-29T08:51:34.744Z,76.30
2017-04-29T08:54:03.063Z,76.70
2017-04-29T08:56:31.503Z,77.30
2017-04-29T08:58:59.835Z,76.60
2017-04-29T09:01:28.145Z,75.70
2017-04-29T09:03:56.867Z,76.60
2017-04-29T09:06:25.928Z,75.80
2017-04-29T09:08:54.358Z,77.20
2017-04-29T09:11:22.719Z,77.40
2017-04-29T09:13:51.775Z,78.00
2017-04-29T09:16:20.092Z,78.00
2017-04-29T09:18:49.381Z,78.80
2017-04-29T09:21:18.440Z,79.10
2017-04-29T09:23:46.751Z,77.90
2017-04-29T09:26:16.060Z,75.80
2017-04-29T09:28:45.112Z,77.20
2017-04-29T09:31:13.426Z,77.80
2017-04-29T09:33:42.829Z,78.70
2017-04-29T09:36:11.888Z,78.30
2017-04-29T09:38:40.201Z,79.00
2017-04-29T09:41:08.545Z,79.50
2017-04-29T09:43:36.888Z,79.20
2017-04-29T09:46:05.204Z,80.20
2017-04-29T09:48:33.667Z,79.00
2017-04-29T09:51:02.043Z,78.30
2017-04-29T09:53:30.369Z,78.70
2017-04-29T09:55:59.675Z,76.70
2017-04-29T09:58:28.732Z,73.60
2017-04-29T10:00:57.056Z,70.20
2017-04-29T10:03:25.640Z,68.40
2017-04-29T10:05:53.969Z,69.60
2017-04-29T10:08:22.306Z,69.70
2017-04-29T10:10:50.957Z,70.00
2017-04-29T10:13:20.076Z,71.10
2017-04-29T10:15:48.393Z,70.10
2017-04-29T10:18:16.916Z,71.00
2017-04-29T10:20:45.980Z,72.00
2017-04-29T10:23:14.300Z,69.80
2017-04-29T10:25:42.871Z,70.50
2017-04-29T10:28:11.932Z,68.60
2017-04-29T10:30:40.254Z,68.60
2017-04-29T10:33:08.904Z,68.40
2017-04-29T10:35:37.223Z,62.80
2017-04-29T10:38:05.582Z,62.80
2017-04-29T10:40:34.700Z,63.60
2017-04-29T10:43:03.072Z,64.70
2017-04-29T10:45:31.395Z,66.10
2017-04-29T10:47:59.753Z,65.40
2017-04-29T10:50:28.076Z,65.00
2017-04-29T10:52:56.397Z,64.60
2017-04-29T10:55:24.770Z,65.60
2017-04-29T10:57:53.092Z,63.90
2017-04-29T11:00:21.408Z,62.20
2017-04-29T11:02:49.997Z,63.90
2017-04-29T11:05:18.357Z,63.40
2017-04-29T11:07:47.415Z,63.90
2017-04-29T11:10:15.907Z,64.10
2017-04-29T11:12:44.244Z,64.70
2017-04-29T11:15:12.568Z,65.10
2017-04-29T11:17:41.270Z,65.10
2017-04-29T11:20:10.333Z,66.70
2017-04-29T11:22:38.644Z,67.20
2017-04-29T11:25:07.934Z,67.00
2017-04-29T11:27:36.275Z,66.30
2017-04-29T11:30:04.621Z,63.20
2017-04-29T11:32:33.084Z,64.20
2017-04-29T11:35:02.202Z,64.30
2017-04-29T11:37:30.617Z,64.20
2017-04-29T11:39:59.142Z,64.00
2017-04-29T11:42:28.207Z,63.50
2017-04-29T11:44:56.539Z,65.00
2017-04-29T11:47:25.016Z,62.40
2017-04-29T11:49:53.352Z,62.90
2017-04-29T11:52:21.685Z,62.60
2017-04-29T11:54:50.164Z,63.40
2017-04-29T11:57:18.485Z,63.00
2017-04-29T11:59:46.809Z,61.10
2017-04-29T12:02:15.196Z,62.20
2017-04-29T12:04:43.520Z,61.40
2017-04-29T12:07:11.844Z,61.40
2017-04-29T12:09:40.223Z,61.40
2017-04-29T12:12:08.567Z,65.30
2017-04-29T12:14:37.648Z,69.80
2017-04-29T12:17:06.383Z,73.80
2017-04-29T12:19:34.776Z,75.40
2017-04-29T12:22:03.092Z,76.80
2017-04-29T12:24:32.297Z,77.60
2017-04-29T12:27:01.369Z,77.40
2017-04-29T12:29:29.700Z,76.60
2017-04-29T12:31:58.455Z,74.90
2017-04-29T12:34:27.619Z,75.00
2017-04-29T12:36:55.938Z,76.50
2017-04-29T12:39:25.031Z,78.70
2017-04-29T12:41:54.083Z,80.40
2017-04-29T12:44:22.396Z,80.40
2017-04-29T12:46:51.724Z,80.30
2017-04-29T12:49:20.042Z,81.40
2017-04-29T12:51:48.353Z,81.90
2017-04-29T12:54:17.548Z,82.90
2017-04-29T12:56:45.886Z,83.30
2017-04-29T12:59:14.212Z,82.90
2017-04-29T13:01:43.415Z,83.80
2017-04-29T13:04:11.731Z,84.40
2017-04-29T13:06:40.055Z,85.70
2017-04-29T13:09:09.213Z,85.30
2017-04-29T13:11:37.544Z,85.50
2017-04-29T13:14:05.872Z,84.40
2017-04-29T13:16:34.418Z,83.50
2017-04-29T13:19:02.729Z,83.00
2017-04-29T13:21:31.043Z,82.90
2017-04-29T13:23:59.617Z,83.50
2017-04-29T13:26:28.686Z,80.70
2017-04-29T13:28:57.003Z,80.30
2017-04-29T13:31:26.118Z,79.40
2017-04-29T13:33:54.434Z,78.60
2017-04-29T13:36:22.753Z,78.90
2017-04-29T13:38:51.840Z,78.70
2017-04-29T13:41:20.896Z,78.30
2017-04-29T13:43:49.218Z,77.90
2017-04-29T13:46:17.793Z,78.30
2017-04-29T13:48:46.854Z,78.10
2017-04-29T13:51:15.208Z,76.80
2017-04-29T13:53:43.661Z,78.60
2017-04-29T13:56:11.985Z,79.00
2017-04-29T13:58:40.307Z,78.10
2017-04-29T14:01:09.400Z,76.50
2017-04-29T14:03:37.727Z,76.50
2017-04-29T14:06:06.055Z,75.20
2017-04-29T14:08:35.181Z,74.50
2017-04-29T14:11:03.504Z,72.10
2017-04-29T14:13:31.829Z,70.10
2017-04-29T14:16:00.374Z,68.60
2017-04-29T14:18:28.710Z,69.70
2017-04-29T14:20:57.043Z,66.60
2017-04-29T14:23:26.262Z,67.50
2017-04-29T14:25:54.836Z,68.00
2017-04-29T14:28:23.215Z,69.90
2017-04-29T14:30:51.563Z,74.80
2017-04-29T14:33:20.680Z,77.70
2017-04-29T14:35:49.012Z,79.90
2017-04-29T14:38:17.480Z,83.20
2017-04-29T14:40:45.812Z,83.60
2017-04-29T14:43:14.895Z,83.20
2017-04-29T14:45:44.027Z,83.20
2017-04-29T14:48:12.344Z,84.40
2017-04-29T14:50:40.684Z,84.10
2017-04-29T14:53:09.064Z,81.40
2017-04-29T14:55:37.377Z,80.10
2017-04-29T14:58:05.759Z,80.80
2017-04-29T15:00:34.152Z,79.10
2017-04-29T15:03:03.269Z,76.90
2017-04-29T15:05:31.600Z,74.80
2017-04-29T15:07:59.977Z,74.80
2017-04-29T15:10:28.319Z,74.60
2017-04-29T15:12:56.640Z,75.00
2017-04-29T15:15:25.235Z,75.40
2017-04-29T15:17:53.564Z,75.80
2017-04-29T15:20:21.882Z,76.80
2017-04-29T15:22:50.492Z,79.40
2017-04-29T15:25:19.554Z,80.30
2017-04-29T15:27:47.865Z,81.80
2017-04-29T15:30:16.439Z,82.70
2017-04-29T15:32:45.499Z,83.30
2017-04-29T15:35:13.851Z,83.90
2017-04-29T15:37:42.388Z,84.80
2017-04-29T15:40:10.747Z,81.10
2017-04-29T15:42:39.068Z,79.90
2017-04-29T15:45:07.729Z,80.40
2017-04-29T15:47:36.802Z,81.30
2017-04-29T15:50:05.115Z,80.80
2017-04-29T15:52:33.492Z,80.30
2017-04-29T15:55:01.818Z,81.10
2017-04-29T15:57:30.128Z,80.80
2017-04-29T15:59:59.533Z,81.60
2017-04-29T16:02:28.590Z,82.00
2017-04-29T16:04:56.997Z,82.20
2017-04-29T16:07:26.406Z,81.90
2017-04-29T16:09:55.470Z,82.10
2017-04-29T16:12:23.855Z,82.00
2017-04-29T16:14:53.189Z,82.00
2017-04-29T16:17:21.749Z,82.10
2017-04-29T16:19:50.068Z,81.60
2017-04-29T16:22:18.444Z,81.40
2017-04-29T16:24:46.776Z,82.50
2017-04-29T16:27:15.102Z,83.10
2017-04-29T16:29:43.659Z,81.70
2017-04-29T16:32:12.724Z,81.10
2017-04-29T16:34:41.056Z,80.80
2017-04-29T16:37:09.415Z,79.80
2017-04-29T16:39:38.481Z,80.30
2017-04-29T16:42:06.812Z,80.60
2017-04-29T16:44:35.476Z,80.00
2017-04-29T16:47:03.824Z,79.50
2017-04-29T16:49:32.140Z,81.00
2017-04-29T16:52:00.509Z,79.50
2017-04-29T16:54:28.828Z,80.10
2017-04-29T16:56:57.164Z,78.50
2017-04-29T16:59:25.747Z,78.90
2017-04-29T17:01:54.061Z,79.20
2017-04-29T17:04:22.393Z,79.00
2017-04-29T17:06:51.599Z,78.50
2017-04-29T17:09:19.929Z,78.00
2017-04-29T17:11:48.275Z,78.50
2017-04-29T17:14:16.736Z,79.40
2017-04-29T17:16:45.059Z,80.10
2017-04-29T17:19:13.388Z,79.50
2017-04-29T17:21:41.977Z,79.40
2017-04-29T17:24:10.333Z,78.30
2017-04-29T17:26:39.389Z,78.80
2017-04-29T17:29:07.853Z,79.50
2017-04-29T17:31:36.185Z,80.40
2017-04-29T17:34:05.281Z,80.50
2017-04-29T17:36:34.475Z,81.00
2017-04-29T17:39:02.799Z,79.80
2017-04-29T17:41:31.123Z,79.40
2017-04-29T17:43:59.712Z,79.70
2017-04-29T17:46:28.778Z,79.90
2017-04-29T17:48:57.095Z,79.00
2017-04-29T17:51:26.525Z,78.90
2017-04-29T17:53:54.843Z,79.50
2017-04-29T17:56:23.179Z,80.10
2017-04-29T17:58:51.732Z,80.10
2017-04-29T18:01:20.795Z,80.60
2017-04-29T18:03:49.236Z,80.00
2017-04-29T18:06:17.588Z,79.00
2017-04-29T18:08:46.653Z,79.80
2017-04-29T18:11:14.974Z,80.10
2017-04-29T18:13:43.381Z,79.40
2017-04-29T18:16:11.712Z,80.00
2017-04-29T18:18:40.771Z,80.70
2017-04-29T18:21:09.186Z,80.50
2017-04-29T18:23:37.516Z,81.30
2017-04-29T18:26:05.865Z,81.60
2017-04-29T18:28:34.230Z,82.60
2017-04-29T18:31:02.570Z,83.00
2017-04-29T18:33:30.911Z,83.90
2017-04-29T18:35:59.603Z,84.40
2017-04-29T18:38:31.847Z,85.00
2017-04-29T18:41:00.320Z,85.80
2017-04-29T18:43:28.653Z,86.30
2017-04-29T18:45:56.991Z,85.80
2017-04-29T18:48:25.615Z,86.00
2017-04-29T18:50:54.003Z,86.40
2017-04-29T18:53:22.348Z,87.10
2017-04-29T18:55:50.695Z,87.90
2017-04-29T18:58:19.031Z,88.50
2017-04-29T19:00:47.352Z,88.80
2017-04-29T19:03:16.013Z,88.80
2017-04-29T19:05:45.080Z,88.90
2017-04-29T19:08:13.412Z,89.30
2017-04-29T19:10:42.010Z,89.80
2017-04-29T19:13:10.342Z,90.10
2017-04-29T19:15:39.400Z,90.20
2017-04-29T19:18:07.808Z,90.30
2017-04-29T19:20:36.123Z,90.30
2017-04-29T19:23:04.485Z,90.20
2017-04-29T19:25:33.067Z,90.30
2017-04-29T19:28:01.390Z,90.30
2017-04-29T19:30:29.706Z,90.50
2017-04-29T19:32:59.047Z,90.60
2017-04-29T19:35:27.357Z,90.80
2017-04-29T19:37:55.675Z,91.00
2017-04-29T19:40:24.046Z,91.20
2017-04-29T19:42:52.391Z,91.30
2017-04-29T19:45:20.712Z,91.30
2017-04-29T19:47:49.200Z,91.30
2017-04-29T19:50:17.524Z,91.30
2017-04-29T19:52:45.852Z,91.20
2017-04-29T19:55:14.332Z,91.30
2017-04-29T19:57:42.657Z,91.80
2017-04-29T20:00:11.435Z,91.80
2017-04-29T20:02:39.955Z,91.90
2017-04-29T20:05:09.048Z,92.00
2017-04-29T20:07:38.103Z,92.10
2017-04-29T20:10:06.623Z,92.20
2017-04-29T20:12:35.678Z,92.30
2017-04-29T20:15:04.004Z,92.30
2017-04-29T20:17:33.294Z,92.30
2017-04-29T20:20:02.352Z,92.40
2017-04-29T20:22:30.667Z,92.40
2017-04-29T20:24:59.768Z,92.60
2017-04-29T20:27:28.828Z,92.50
2017-04-29T20:29:57.146Z,92.50
2017-04-29T20:32:25.517Z,92.80
2017-04-29T20:34:54.593Z,92.50
2017-04-29T20:37:22.907Z,92.70
2017-04-29T20:39:51.484Z,92.80
2017-04-29T20:42:19.803Z,92.90
2017-04-29T20:44:48.116Z,92.80
2017-04-29T20:47:17.236Z,92.80
2017-04-29T20:49:45.560Z,92.80
2017-04-29T20:52:13.880Z,92.90
2017-04-29T20:54:43.381Z,93.00
2017-04-29T20:57:12.442Z,93.00
2017-04-29T20:59:40.814Z,93.10
2017-04-29T21:02:09.432Z,93.10
2017-04-29T21:04:38.491Z,93.40
2017-04-29T21:07:06.830Z,93.30
2017-04-29T21:09:35.411Z,93.30
2017-04-29T21:12:03.752Z,93.30
2017-04-29T21:14:32.076Z,93.40
2017-04-29T21:17:00.580Z,93.50
2017-04-29T21:19:28.908Z,93.60
2017-04-29T21:21:57.233Z,93.90
2017-04-29T21:24:25.646Z,93.70
2017-04-29T21:26:54.704Z,93.70
2017-04-29T21:29:23.013Z,93.70
2017-04-29T21:31:51.605Z,93.80
2017-04-29T21:34:20.663Z,94.10
2017-04-29T21:36:48.976Z,93.90
2017-04-29T21:39:18.153Z,94.00
2017-04-29T21:41:46.500Z,94.00
2017-04-29T21:44:14.816Z,94.10
2017-04-29T21:46:43.273Z,94.20
2017-04-29T21:49:11.588Z,94.20
2017-04-29T21:51:40.646Z,94.20
2017-04-29T21:54:09.265Z,94.30
2017-04-29T21:56:38.320Z,94.20
2017-04-29T21:59:06.661Z,94.40
2017-04-29T22:01:35.128Z,94.40
2017-04-29T22:04:04.207Z,94.50
2017-04-29T22:06:33.263Z,94.50
2017-04-29T22:09:01.963Z,94.50
2017-04-29T22:11:30.288Z,94.80
2017-04-29T22:13:58.604Z,94.50
2017-04-29T22:16:27.249Z,94.50
2017-04-29T22:18:55.572Z,94.60
2017-04-29T22:21:23.891Z,94.60
2017-04-29T22:23:53.284Z,94.60
2017-04-29T22:26:22.353Z,94.70
2017-04-29T22:28:50.671Z,94.70
2017-04-29T22:31:19.250Z,94.90
2017-04-29T22:33:47.580Z,95.00
2017-04-29T22:36:15.896Z,95.00
2017-04-29T22:38:44.991Z,94.90
2017-04-29T22:41:14.068Z,94.90
2017-04-29T22:43:42.387Z,94.80
2017-04-29T22:46:10.939Z,94.90
2017-04-29T22:48:40.002Z,94.80
2017-04-29T22:51:08.312Z,94.80
2017-04-29T22:53:37.435Z,94.80
2017-04-29T22:56:05.748Z,95.20
2017-04-29T22:58:34.062Z,95.10
2017-04-29T23:01:03.189Z,95.20
2017-04-29T23:03:31.515Z,95.20
2017-04-29T23:05:59.835Z,95.20
2017-04-29T23:08:28.200Z,95.20
2017-04-29T23:10:57.252Z,95.30
2017-04-29T23:13:25.568Z,95.30
2017-04-29T23:15:54.977Z,95.30
2017-04-29T23:18:23.302Z,95.60
2017-04-29T23:20:51.648Z,95.40
2017-04-29T23:23:20.080Z,95.50
2017-04-29T23:25:48.401Z,95.30
2017-04-29T23:28:16.717Z,95.40
2017-04-29T23:30:45.096Z,95.40
2017-04-29T23:33:13.433Z,95.50
2017-04-29T23:35:41.744Z,95.40
2017-04-29T23:38:10.268Z,95.50
2017-04-29T23:40:39.335Z,95.60
2017-04-29T23:43:07.660Z,95.60
2017-04-29T23:45:36.036Z,95.50
2017-04-29T23:48:04.357Z,95.60
2017-04-29T23:50:32.664Z,95.60
2017-04-29T23:53:01.971Z,95.40
2017-04-29T23:55:31.024Z,95.30
2017-04-29T23:57:59.341Z,95.40
